Time;durP1;ratioP1;P1;durP2;ratioP2;P2;SDS_P1;SDS_P2;PMS_P1;PMS_P2;Temp;Humidity;BMP_temperature;BMP_pressure;BME280_temperature;BME280_humidity;BME280_pressure;Samples;Min_cycle;Max_cycle;Signal;HPM_P1;HPM_P2
2023/09/09 00:00:58;;;;;;;0.00;0.00;;;15.30;99.90;;;;;;5058593;28;20035;-76
2023/09/09 00:03:25;;;;;;;0.10;0.10;;;15.30;99.90;;;;;;5057538;28;20091;-76
2023/09/09 00:05:51;;;;;;;0.10;0.10;;;15.30;99.90;;;;;;5057852;28;20127;-76
2023/09/09 00:08:18;;;;;;;0.10;0.10;;;16.30;99.90;;;;;;5058290;28;20103;-80
2023/09/09 00:10:45;;;;;;;0.10;0.10;;;15.20;99.90;;;;;;5059242;28;20017;-77
2023/09/09 00:13:11;;;;;;;2.38;1.55;;;15.20;99.90;;;;;;5058143;28;20036;-82
2023/09/09 00:15:40;;;;;;;0.10;0.10;;;15.10;99.90;;;;;;5058640;28;20017;-77
2023/09/09 00:18:06;;;;;;;0.00;0.00;;;15.10;99.90;;;;;;5058785;28;20020;-77
2023/09/09 00:20:36;;;;;;;0.10;0.10;;;15.00;99.90;;;;;;5057995;28;20030;-77
2023/09/09 00:23:08;;;;;;;0.08;0.08;;;15.00;99.90;;;;;;5060128;28;20317;-77
2023/09/09 00:25:37;;;;;;;0.00;0.00;;;15.00;99.90;;;;;;5041455;28;20131;-77
2023/09/09 00:28:04;;;;;;;0.10;0.10;;;14.90;99.90;;;;;;5059144;28;20052;-78
2023/09/09 00:30:31;;;;;;;0.10;0.10;;;14.90;99.90;;;;;;5060163;28;20074;-77
2023/09/09 00:32:58;;;;;;;0.10;0.10;;;14.90;99.90;;;;;;5058947;28;20033;-79
2023/09/09 00:35:24;;;;;;;0.03;0.03;;;14.90;99.90;;;;;;5042174;28;20025;-76
2023/09/09 00:37:50;;;;;;;0.68;0.68;;;14.90;99.90;;;;;;5057645;28;20043;-75
2023/09/09 00:40:16;;;;;;;0.10;0.10;;;14.90;99.90;;;;;;5057425;28;20368;-78
2023/09/09 00:42:42;;;;;;;0.05;0.05;;;14.90;99.90;;;;;;5058501;28;20016;-77
2023/09/09 00:45:08;;;;;;;0.15;0.15;;;14.90;99.90;;;;;;5057746;28;20478;-78
2023/09/09 00:47:34;;;;;;;0.10;0.10;;;14.80;99.90;;;;;;5057653;28;20317;-76
2023/09/09 00:50:00;;;;;;;0.00;0.00;;;14.80;99.90;;;;;;5057125;28;20408;-74
2023/09/09 00:52:26;;;;;;;0.10;0.10;;;14.80;99.90;;;;;;5057179;28;20060;-75
2023/09/09 00:54:53;;;;;;;0.10;0.10;;;14.80;99.90;;;;;;5056841;28;20138;-76
2023/09/09 00:57:19;;;;;;;0.08;0.08;;;14.80;99.90;;;;;;5056782;28;20515;-75
2023/09/09 00:59:46;;;;;;;0.10;0.10;;;14.80;99.90;;;;;;5060337;28;20129;-75
2023/09/09 01:02:13;;;;;;;0.15;0.15;;;14.80;99.90;;;;;;5060461;28;20025;-77
2023/09/09 01:04:39;;;;;;;0.10;0.10;;;14.70;99.90;;;;;;5060670;28;20095;-76
2023/09/09 01:07:05;;;;;;;0.10;0.10;;;14.70;99.90;;;;;;5060368;28;20273;-74
2023/09/09 01:09:31;;;;;;;0.00;0.00;;;14.90;99.90;;;;;;5060528;28;20089;-75
2023/09/09 01:11:58;;;;;;;0.10;0.10;;;14.70;99.90;;;;;;5060321;28;20325;-75
2023/09/09 01:14:24;;;;;;;0.10;0.10;;;14.80;99.90;;;;;;5060777;28;20112;-77
2023/09/09 01:16:52;;;;;;;0.05;0.05;;;14.70;99.90;;;;;;5060994;28;20292;-77
2023/09/09 01:19:25;;;;;;;0.10;0.10;;;14.70;99.90;;;;;;5060686;28;20070;-76
2023/09/09 01:21:54;;;;;;;0.05;0.05;;;14.70;99.90;;;;;;5060708;28;20050;-79
2023/09/09 01:24:20;;;;;;;0.10;0.10;;;14.70;99.90;;;;;;5061493;28;20017;-76
2023/09/09 01:26:46;;;;;;;0.10;0.10;;;14.70;99.90;;;;;;5060844;28;20037;-80
2023/09/09 01:29:12;;;;;;;0.10;0.10;;;14.70;99.90;;;;;;5061488;28;20635;-77
2023/09/09 01:31:38;;;;;;;0.10;0.10;;;14.70;99.90;;;;;;5060649;28;20112;-76
2023/09/09 01:34:05;;;;;;;0.00;0.00;;;14.60;99.90;;;;;;5060731;28;20100;-80
2023/09/09 01:36:30;;;;;;;0.15;0.15;;;14.40;99.90;;;;;;5061009;28;20039;-76
2023/09/09 01:38:56;;;;;;;0.10;0.10;;;14.40;99.90;;;;;;5060578;28;20309;-76
2023/09/09 01:41:22;;;;;;;0.70;0.70;;;14.30;99.90;;;;;;5060907;28;20047;-81
2023/09/09 01:43:48;;;;;;;0.10;0.10;;;14.30;99.90;;;;;;5075571;28;20326;-76
2023/09/09 01:46:14;;;;;;;0.10;0.10;;;14.20;99.90;;;;;;5060111;28;20103;-76
2023/09/09 01:48:40;;;;;;;0.20;0.20;;;14.10;99.90;;;;;;5060233;28;20024;-76
2023/09/09 01:51:06;;;;;;;0.00;0.00;;;14.10;99.90;;;;;;5060318;28;20217;-78
2023/09/09 01:53:32;;;;;;;0.10;0.10;;;14.10;99.90;;;;;;5059978;28;20159;-76
2023/09/09 01:56:00;;;;;;;0.05;0.05;;;14.00;99.90;;;;;;5059781;28;20052;-76
2023/09/09 01:58:26;;;;;;;0.10;0.10;;;14.00;99.90;;;;;;5059291;28;20384;-76
2023/09/09 02:00:52;;;;;;;0.10;0.10;;;13.90;99.90;;;;;;5059179;28;20334;-77
2023/09/09 02:03:18;;;;;;;0.10;0.10;;;14.00;99.90;;;;;;5060600;28;20108;-79
2023/09/09 02:05:45;;;;;;;0.10;0.10;;;13.80;99.90;;;;;;5059812;28;20466;-75
2023/09/09 02:08:11;;;;;;;0.10;0.10;;;13.80;99.90;;;;;;5059816;28;20017;-77
2023/09/09 02:10:36;;;;;;;0.10;0.10;;;13.80;99.90;;;;;;5059484;28;20445;-78
2023/09/09 02:13:02;;;;;;;0.10;0.10;;;13.00;99.90;;;;;;5059830;28;20240;-81
2023/09/09 02:15:28;;;;;;;0.08;0.08;;;13.70;99.90;;;;;;5060484;28;20021;-77
2023/09/09 02:17:54;;;;;;;0.25;0.25;;;13.70;99.90;;;;;;5041633;28;20039;-78
2023/09/09 02:20:20;;;;;;;0.08;0.08;;;13.70;99.90;;;;;;5059474;28;20020;-76
2023/09/09 02:22:45;;;;;;;0.00;0.00;;;13.70;99.90;;;;;;5059457;28;20017;-76
2023/09/09 02:25:11;;;;;;;0.10;0.10;;;10.80;99.90;;;;;;5040849;28;20313;-80
2023/09/09 02:27:37;;;;;;;0.10;0.10;;;13.70;99.90;;;;;;5059362;28;20438;-76
2023/09/09 02:30:04;;;;;;;0.10;0.10;;;13.70;99.90;;;;;;5059677;28;20039;-77
2023/09/09 02:32:30;;;;;;;0.10;0.10;;;13.70;99.90;;;;;;5059418;28;20029;-76
2023/09/09 02:34:57;;;;;;;0.10;0.10;;;13.70;99.90;;;;;;5058825;28;20376;-82
2023/09/09 02:37:25;;;;;;;0.00;0.00;;;13.40;99.90;;;;;;5058721;28;20020;-75
2023/09/09 02:39:51;;;;;;;1.77;1.67;;;13.80;99.90;;;;;;5058542;28;20111;-76
2023/09/09 02:42:19;;;;;;;0.65;0.65;;;13.80;99.90;;;;;;5059230;28;20017;-76
2023/09/09 02:44:45;;;;;;;0.10;0.10;;;13.80;99.90;;;;;;5059153;28;20028;-78
2023/09/09 02:47:13;;;;;;;0.10;0.10;;;13.80;99.90;;;;;;5041214;28;20051;-77
2023/09/09 02:49:39;;;;;;;0.10;0.10;;;13.80;99.90;;;;;;5060020;28;20052;-74
2023/09/09 02:52:09;;;;;;;0.10;0.10;;;13.80;99.90;;;;;;5042830;28;20239;-79
2023/09/09 02:54:35;;;;;;;0.10;0.10;;;13.90;99.90;;;;;;5059344;28;20060;-76
2023/09/09 02:57:03;;;;;;;0.10;0.10;;;13.80;99.90;;;;;;5060061;28;20478;-76
2023/09/09 02:59:33;;;;;;;0.00;0.00;;;13.90;99.90;;;;;;5059147;28;20059;-77
2023/09/09 03:01:59;;;;;;;0.10;0.10;;;13.80;99.90;;;;;;5058623;28;20039;-76
2023/09/09 03:04:25;;;;;;;3.42;1.67;;;13.80;99.90;;;;;;5040934;28;20032;-76
2023/09/09 03:06:51;;;;;;;0.10;0.10;;;13.80;99.90;;;;;;5059163;28;20283;-79
2023/09/09 03:09:17;;;;;;;0.10;0.10;;;13.90;99.90;;;;;;5059259;28;20438;-80
2023/09/09 03:11:42;;;;;;;0.13;0.13;;;14.00;99.90;;;;;;5059075;28;20017;-78
2023/09/09 03:14:11;;;;;;;0.10;0.10;;;13.70;99.90;;;;;;5058412;28;20096;-79
2023/09/09 03:16:37;;;;;;;0.00;0.00;;;13.80;99.90;;;;;;5059291;28;20501;-78
2023/09/09 03:19:03;;;;;;;0.08;0.08;;;13.70;99.90;;;;;;5059138;28;20032;-75
2023/09/09 03:21:29;;;;;;;0.10;0.10;;;13.60;99.90;;;;;;5059517;28;20593;-77
2023/09/09 03:23:55;;;;;;;0.10;0.10;;;13.60;99.90;;;;;;5060811;28;20020;-76
2023/09/09 03:26:22;;;;;;;0.10;0.10;;;13.50;99.90;;;;;;5044485;28;20062;-77
2023/09/09 03:28:51;;;;;;;0.03;0.03;;;13.40;99.90;;;;;;5062443;28;20306;-76
2023/09/09 03:31:17;;;;;;;0.10;0.10;;;13.40;99.90;;;;;;5043740;28;20028;-76
2023/09/09 03:33:43;;;;;;;0.10;0.10;;;13.40;99.90;;;;;;5060346;28;20036;-78
2023/09/09 03:36:10;;;;;;;0.10;0.10;;;13.00;99.90;;;;;;5061221;28;20058;-77
2023/09/09 03:38:36;;;;;;;0.10;0.10;;;13.00;99.90;;;;;;5041398;28;20025;-76
2023/09/09 03:41:06;;;;;;;1.17;1.17;;;13.20;99.90;;;;;;5059059;28;20272;-76
2023/09/09 03:43:36;;;;;;;0.00;0.00;;;13.20;99.90;;;;;;5059506;28;20154;-77
2023/09/09 03:46:02;;;;;;;0.10;0.10;;;13.20;99.90;;;;;;5041698;28;20336;-76
2023/09/09 03:48:28;;;;;;;0.03;0.03;;;13.20;99.90;;;;;;5060467;28;20108;-76
2023/09/09 03:51:00;;;;;;;0.00;0.00;;;13.20;99.90;;;;;;5060173;28;20405;-76
2023/09/09 03:53:27;;;;;;;0.10;0.10;;;13.30;99.90;;;;;;5060512;28;20036;-75
2023/09/09 03:55:53;;;;;;;0.10;0.10;;;13.10;99.90;;;;;;5060091;28;20028;-75
2023/09/09 03:58:19;;;;;;;0.10;0.10;;;13.20;99.90;;;;;;5060621;28;20334;-78
2023/09/09 04:00:47;;;;;;;0.10;0.10;;;13.10;99.90;;;;;;5041924;28;20433;-76
2023/09/09 04:03:13;;;;;;;0.20;0.20;;;13.20;99.90;;;;;;5060557;28;20082;-75
2023/09/09 04:05:40;;;;;;;0.00;0.00;;;13.30;99.90;;;;;;5041909;28;20028;-75
2023/09/09 04:08:09;;;;;;;0.43;0.43;;;13.20;99.90;;;;;;5041471;28;20144;-76
2023/09/09 04:10:35;;;;;;;0.10;0.10;;;13.30;99.90;;;;;;5058465;28;20047;-76
2023/09/09 04:13:01;;;;;;;0.10;0.10;;;13.30;99.90;;;;;;5058144;28;20035;-76
2023/09/09 04:15:30;;;;;;;0.40;0.40;;;13.30;99.90;;;;;;5058314;28;20017;-78
2023/09/09 04:17:56;;;;;;;0.63;0.63;;;13.00;99.90;;;;;;5058913;28;20032;-76
2023/09/09 04:20:22;;;;;;;0.35;0.35;;;13.30;99.90;;;;;;5059031;28;20202;-78
2023/09/09 04:22:47;;;;;;;3.78;3.17;;;13.30;99.90;;;;;;5059948;28;20025;-75
2023/09/09 04:25:13;;;;;;;4.95;4.65;;;13.30;99.90;;;;;;5040412;28;20028;-76
2023/09/09 04:27:39;;;;;;;3.40;3.22;;;13.20;99.90;;;;;;5060604;28;20314;-77
2023/09/09 04:30:10;;;;;;;0.10;0.10;;;13.10;99.90;;;;;;5059870;28;20063;-76
2023/09/09 04:32:37;;;;;;;0.00;0.00;;;13.70;99.90;;;;;;5060112;28;20043;-76
2023/09/09 04:35:03;;;;;;;0.10;0.10;;;13.00;99.90;;;;;;5045159;28;20127;-77
2023/09/09 04:37:30;;;;;;;0.00;0.00;;;13.10;99.90;;;;;;5063651;28;20091;-77
2023/09/09 04:39:56;;;;;;;0.00;0.00;;;13.10;99.90;;;;;;5062092;28;20040;-76
2023/09/09 04:42:22;;;;;;;0.10;0.10;;;13.00;99.90;;;;;;5078286;28;20063;-82
2023/09/09 04:44:48;;;;;;;0.03;0.03;;;12.90;99.90;;;;;;5063477;28;20040;-76
2023/09/09 04:47:13;;;;;;;0.10;0.10;;;12.90;99.90;;;;;;5079898;28;20343;-78
2023/09/09 04:49:39;;;;;;;0.35;0.35;;;12.90;99.90;;;;;;5077922;28;20511;-78
2023/09/09 04:52:05;;;;;;;1.98;1.88;;;12.90;99.90;;;;;;5044868;28;20024;-76
2023/09/09 04:54:31;;;;;;;0.10;0.10;;;13.50;99.90;;;;;;5064698;28;20312;-75
2023/09/09 04:56:57;;;;;;;0.10;0.10;;;12.90;99.90;;;;;;5068014;28;20024;-76
2023/09/09 04:59:23;;;;;;;0.10;0.10;;;12.90;99.90;;;;;;5069207;28;20025;-76
2023/09/09 05:01:49;;;;;;;6.22;3.92;;;12.90;99.90;;;;;;5049921;28;20039;-76
2023/09/09 05:04:17;;;;;;;0.10;0.10;;;12.80;99.90;;;;;;5048141;28;20201;-76
2023/09/09 05:06:42;;;;;;;0.10;0.10;;;12.80;99.90;;;;;;5063941;28;20032;-76
2023/09/09 05:09:09;;;;;;;0.10;0.10;;;12.90;99.90;;;;;;5064755;28;20020;-80
2023/09/09 05:11:39;;;;;;;0.10;0.10;;;12.90;99.90;;;;;;5064829;28;20375;-78
2023/09/09 05:14:08;;;;;;;3.50;1.08;;;11.70;99.90;;;;;;5064638;28;20036;-76
2023/09/09 05:16:36;;;;;;;0.03;0.03;;;13.10;99.90;;;;;;5063771;28;20186;-78
2023/09/09 05:19:03;;;;;;;0.10;0.10;;;13.20;99.90;;;;;;5061002;28;20052;-75
2023/09/09 05:21:28;;;;;;;0.10;0.10;;;13.30;99.90;;;;;;5060755;28;20021;-76
2023/09/09 05:23:54;;;;;;;0.50;0.50;;;13.40;99.90;;;;;;5060342;28;20415;-77
2023/09/09 05:26:20;;;;;;;0.10;0.10;;;13.40;99.90;;;;;;5061419;28;20094;-76
2023/09/09 05:28:46;;;;;;;0.10;0.10;;;13.60;99.90;;;;;;5060759;28;20043;-76
2023/09/09 05:31:13;;;;;;;0.10;0.10;;;13.60;99.90;;;;;;5025265;28;20356;-77
2023/09/09 05:33:39;;;;;;;0.10;0.10;;;13.60;99.90;;;;;;5076242;28;20032;-77
2023/09/09 05:36:05;;;;;;;0.10;0.10;;;13.70;99.90;;;;;;5061169;28;20355;-77
2023/09/09 05:38:31;;;;;;;0.13;0.13;;;13.80;99.90;;;;;;5060478;28;20028;-76
2023/09/09 05:40:57;;;;;;;1.00;1.00;;;13.90;99.90;;;;;;5060530;28;20016;-76
2023/09/09 05:43:22;;;;;;;0.75;0.75;;;13.90;99.90;;;;;;5042211;28;20025;-76
2023/09/09 05:45:48;;;;;;;0.40;0.40;;;14.00;99.90;;;;;;5041169;28;20036;-76
2023/09/09 05:48:14;;;;;;;0.00;0.00;;;14.10;99.90;;;;;;5041606;28;20036;-75
2023/09/09 05:50:40;;;;;;;0.10;0.10;;;14.20;99.90;;;;;;5059463;28;20479;-76
2023/09/09 05:53:06;;;;;;;0.10;0.10;;;;;;;;;;5059300;28;20321;-76
2023/09/09 05:55:32;;;;;;;0.10;0.10;;;14.40;99.90;;;;;;5041645;28;20082;-76
2023/09/09 05:57:58;;;;;;;0.10;0.10;;;14.40;99.90;;;;;;5059547;28;20029;-77
2023/09/09 06:00:24;;;;;;;0.00;0.00;;;14.50;99.90;;;;;;5059929;28;20463;-76
2023/09/09 06:02:49;;;;;;;0.10;0.10;;;14.60;99.90;;;;;;5059995;28;20030;-75
2023/09/09 06:05:15;;;;;;;1.10;1.10;;;14.50;99.90;;;;;;5060538;28;20017;-79
2023/09/09 06:07:41;;;;;;;0.10;0.10;;;14.70;99.90;;;;;;5061387;28;20255;-79
2023/09/09 06:10:08;;;;;;;0.10;0.10;;;14.80;99.90;;;;;;5059849;28;20045;-76
2023/09/09 06:12:33;;;;;;;0.00;0.00;;;14.90;99.90;;;;;;5059798;28;20671;-76
2023/09/09 06:14:59;;;;;;;0.88;0.88;;;15.00;99.90;;;;;;5059585;28;20475;-77
2023/09/09 06:17:25;;;;;;;0.10;0.10;;;15.10;99.90;;;;;;5059642;28;20036;-75
2023/09/09 06:19:51;;;;;;;0.30;0.30;;;15.20;99.90;;;;;;5059514;28;20024;-79
2023/09/09 06:22:16;;;;;;;0.10;0.10;;;15.20;99.90;;;;;;5059734;28;20020;-75
2023/09/09 06:24:43;;;;;;;0.08;0.08;;;15.30;99.90;;;;;;5041864;28;20039;-81
2023/09/09 06:27:09;;;;;;;0.00;0.00;;;15.40;99.90;;;;;;5041806;28;20055;-76
2023/09/09 06:29:35;;;;;;;0.45;0.45;;;15.50;99.90;;;;;;5058829;28;20422;-77
2023/09/09 06:32:06;;;;;;;0.63;0.32;;;15.60;99.90;;;;;;5059093;28;20021;-75
2023/09/09 06:34:32;;;;;;;0.85;0.85;;;15.70;99.90;;;;;;5059263;28;20395;-78
2023/09/09 06:36:58;;;;;;;0.17;0.17;;;15.80;99.90;;;;;;5041265;28;20016;-78
2023/09/09 06:39:23;;;;;;;0.10;0.10;;;15.90;99.90;;;;;;5058549;28;20052;-75
2023/09/09 06:41:50;;;;;;;0.00;0.00;;;16.50;99.90;;;;;;5059044;28;20025;-76
2023/09/09 06:44:16;;;;;;;3.53;3.30;;;16.10;99.90;;;;;;5059481;28;20032;-76
2023/09/09 06:46:42;;;;;;;0.40;0.40;;;16.10;99.90;;;;;;5060693;28;20394;-77
2023/09/09 06:49:08;;;;;;;0.00;0.00;;;15.00;99.90;;;;;;5042595;28;20021;-76
2023/09/09 06:51:34;;;;;;;0.05;0.05;;;16.30;99.90;;;;;;5059937;28;20028;-77
2023/09/09 06:53:59;;;;;;;0.10;0.10;;;14.70;99.90;;;;;;5059310;28;20029;-77
2023/09/09 06:56:25;;;;;;;0.52;0.52;;;18.10;99.90;;;;;;5057697;28;20027;-77
2023/09/09 06:58:51;;;;;;;0.00;0.00;;;17.10;99.90;;;;;;5058402;28;20032;-83
2023/09/09 07:01:16;;;;;;;0.10;0.10;;;16.80;99.90;;;;;;5058535;28;20272;-79
2023/09/09 07:03:42;;;;;;;0.75;0.75;;;16.90;99.90;;;;;;5039622;28;20090;-77
2023/09/09 07:06:08;;;;;;;0.75;0.75;;;17.10;99.90;;;;;;5058737;28;20303;-79
2023/09/09 07:08:39;;;;;;;0.10;0.10;;;17.30;99.90;;;;;;5060209;28;20029;-76
2023/09/09 07:11:05;;;;;;;0.10;0.10;;;17.40;99.90;;;;;;5059487;28;20013;-76
2023/09/09 07:13:30;;;;;;;0.10;0.10;;;17.30;99.90;;;;;;5059417;28;20028;-76
2023/09/09 07:15:56;;;;;;;2.35;2.28;;;17.40;99.90;;;;;;5058873;28;20099;-78
2023/09/09 07:18:22;;;;;;;0.20;0.20;;;17.50;99.90;;;;;;5058358;28;20368;-76
2023/09/09 07:20:48;;;;;;;0.17;0.17;;;17.70;99.90;;;;;;5039822;28;20056;-76
2023/09/09 07:23:18;;;;;;;0.00;0.00;;;17.80;99.90;;;;;;5040677;28;20150;-76
2023/09/09 07:25:47;;;;;;;0.00;0.00;;;18.00;99.90;;;;;;5058477;28;20116;-77
2023/09/09 07:28:12;;;;;;;0.08;0.08;;;18.20;99.90;;;;;;5058616;28;20053;-76
2023/09/09 07:30:39;;;;;;;0.10;0.10;;;18.20;99.90;;;;;;5058888;28;20482;-76
2023/09/09 07:33:04;;;;;;;0.22;0.22;;;18.20;99.90;;;;;;5058676;28;20116;-76
2023/09/09 07:35:31;;;;;;;0.15;0.15;;;18.30;99.90;;;;;;5073378;28;20111;-75
2023/09/09 07:37:56;;;;;;;0.00;0.00;;;18.30;99.90;;;;;;5057746;28;20090;-80
2023/09/09 07:40:22;;;;;;;0.03;0.03;;;18.30;99.90;;;;;;5039907;28;20264;-77
2023/09/09 07:42:50;;;;;;;0.63;0.57;;;18.50;99.90;;;;;;5040106;28;20425;-79
2023/09/09 07:45:16;;;;;;;0.00;0.00;;;18.60;99.90;;;;;;5057773;28;20028;-78
2023/09/09 07:47:42;;;;;;;4.10;1.55;;;18.70;99.90;;;;;;5057920;28;20021;-79
2023/09/09 07:50:08;;;;;;;0.10;0.10;;;18.80;99.90;;;;;;5057735;28;20281;-77
2023/09/09 07:52:34;;;;;;;0.10;0.10;;;18.90;99.90;;;;;;5059068;28;20464;-77
2023/09/09 07:55:00;;;;;;;0.15;0.15;;;18.90;99.90;;;;;;5059104;28;20051;-77
2023/09/09 07:57:25;;;;;;;0.57;0.57;;;19.00;99.90;;;;;;5058846;28;20522;-77
2023/09/09 07:59:51;;;;;;;0.20;0.20;;;19.00;99.90;;;;;;5059375;28;20662;-76
2023/09/09 08:02:17;;;;;;;0.55;0.55;;;19.10;99.90;;;;;;5057704;28;20023;-79
2023/09/09 08:04:43;;;;;;;0.25;0.25;;;19.20;99.90;;;;;;5058355;28;20096;-76
2023/09/09 08:07:09;;;;;;;0.57;0.57;;;19.50;99.90;;;;;;5059771;28;20048;-77
2023/09/09 08:09:34;;;;;;;0.38;0.38;;;19.60;99.90;;;;;;5062528;28;20055;-77
2023/09/09 08:12:00;;;;;;;0.00;0.00;;;19.60;99.90;;;;;;5062128;28;20282;-83
2023/09/09 08:14:26;;;;;;;0.00;0.00;;;19.80;99.90;;;;;;5061977;28;20078;-76
2023/09/09 08:16:52;;;;;;;0.10;0.10;;;19.90;99.90;;;;;;5062023;28;20150;-77
2023/09/09 08:19:18;;;;;;;0.10;0.05;;;20.10;99.90;;;;;;5061904;28;20112;-76
2023/09/09 08:21:43;;;;;;;0.10;0.10;;;20.30;99.90;;;;;;5061626;28;20111;-79
2023/09/09 08:24:09;;;;;;;0.10;0.10;;;20.40;99.90;;;;;;5044091;28;20394;-76
2023/09/09 08:26:35;;;;;;;0.00;0.00;;;20.50;99.90;;;;;;5061251;28;20045;-75
2023/09/09 08:29:01;;;;;;;0.00;0.00;;;20.50;99.90;;;;;;5061809;28;20892;-76
2023/09/09 08:31:26;;;;;;;0.43;0.43;;;20.60;99.90;;;;;;5062404;28;20025;-84
2023/09/09 08:33:52;;;;;;;0.00;0.00;;;20.50;99.90;;;;;;5077424;28;20413;-76
2023/09/09 08:36:18;;;;;;;0.00;0.00;;;20.80;99.90;;;;;;5062953;28;20017;-76
2023/09/09 08:38:44;;;;;;;0.00;0.00;;;21.00;99.90;;;;;;5063702;28;20404;-88
2023/09/09 08:41:47;;;;;;;0.00;0.00;;;21.20;99.90;;;;;;5063087;28;20666;-79
2023/09/09 08:44:43;;;;;;;1.55;1.45;;;21.40;99.90;;;;;;5062473;28;20028;-77
2023/09/09 08:47:09;;;;;;;0.63;0.63;;;21.70;99.90;;;;;;5045702;28;20134;-84
2023/09/09 08:49:37;;;;;;;0.95;0.95;;;21.60;99.90;;;;;;5064445;28;20051;-80
2023/09/09 08:52:12;;;;;;;0.10;0.10;;;21.80;99.90;;;;;;5064582;28;20012;-91
2023/09/09 08:54:38;;;;;;;0.00;0.00;;;20.00;99.90;;;;;;5034355;28;20127;-76
2023/09/09 08:57:05;;;;;;;0.00;0.00;;;22.10;99.90;;;;;;5060282;28;20474;-77
2023/09/09 08:59:34;;;;;;;0.00;0.00;;;22.20;99.90;;;;;;5061332;28;20623;-77
2023/09/09 09:02:02;;;;;;;0.00;0.00;;;22.50;99.90;;;;;;5047668;28;20055;-77
2023/09/09 09:04:29;;;;;;;0.10;0.10;;;22.40;99.90;;;;;;5045949;28;20094;-77
2023/09/09 09:06:57;;;;;;;0.10;0.10;;;22.60;99.90;;;;;;5064738;28;20074;-82
2023/09/09 09:09:23;;;;;;;0.40;0.30;;;22.70;99.90;;;;;;5063290;28;20032;-76
2023/09/09 09:11:50;;;;;;;0.00;0.00;;;19.60;99.90;;;;;;5063703;28;20016;-77
2023/09/09 09:14:16;;;;;;;0.00;0.00;;;22.80;99.90;;;;;;5064098;28;20029;-77
2023/09/09 09:16:44;;;;;;;0.10;0.10;;;22.90;99.90;;;;;;5063580;28;20024;-78
2023/09/09 09:19:27;;;;;;;0.35;0.35;;;23.00;99.90;;;;;;5060777;28;20025;-80
2023/09/09 09:21:55;;;;;;;0.65;0.65;;;23.30;99.90;;;;;;5061615;28;20043;-76
2023/09/09 09:24:28;;;;;;;0.22;0.22;;;23.20;99.90;;;;;;5062083;28;20016;-77
2023/09/09 09:26:55;;;;;;;;;;;23.30;99.90;;;;;;5061271;28;20102;-76
2023/09/09 09:29:21;;;;;;;0.00;0.00;;;23.50;99.90;;;;;;5061058;28;19931;-76
2023/09/09 09:31:51;;;;;;;0.00;0.00;;;23.60;99.90;;;;;;5042870;28;20047;-79
2023/09/09 09:34:31;;;;;;;0.10;0.10;;;23.70;99.90;;;;;;5042806;28;20147;-81
2023/09/09 09:36:57;;;;;;;0.05;0.05;;;23.70;99.90;;;;;;5061141;28;20024;-80
2023/09/09 09:39:23;;;;;;;0.25;0.25;;;23.70;99.90;;;;;;5060782;28;20381;-81
2023/09/09 09:41:49;;;;;;;0.00;0.00;;;23.70;99.90;;;;;;5060461;28;20013;-79
2023/09/09 09:44:20;;;;;;;0.50;0.50;;;23.90;99.90;;;;;;5060002;28;20021;-76
2023/09/09 09:47:05;;;;;;;0.00;0.00;;;24.00;99.90;;;;;;5059755;28;20013;-75
2023/09/09 09:49:45;;;;;;;0.00;0.00;;;24.20;99.20;;;;;;5059982;28;20085;-76
2023/09/09 09:52:25;;;;;;;0.47;0.47;;;24.40;99.20;;;;;;5060240;28;20103;-76
2023/09/09 09:54:51;;;;;;;0.00;0.00;;;24.60;98.70;;;;;;5060431;28;20040;-84
2023/09/09 09:57:21;;;;;;;2.47;2.38;;;24.80;98.60;;;;;;5054679;28;20052;-77
2023/09/09 09:59:46;;;;;;;0.95;0.70;;;24.90;97.90;;;;;;5059924;28;20029;-83
2023/09/09 10:02:15;;;;;;;0.35;0.30;;;24.90;98.20;;;;;;5061593;28;20440;-78
2023/09/09 10:04:52;;;;;;;0.00;0.00;;;25.00;97.80;;;;;;5043628;28;20020;-76
2023/09/09 10:07:23;;;;;;;0.75;0.63;;;25.10;97.00;;;;;;5027578;28;20078;-76
2023/09/09 10:09:56;;;;;;;2.28;2.17;;;25.30;97.20;;;;;;5061922;28;20225;-79
2023/09/09 10:12:40;;;;;;;1.02;0.30;;;25.30;96.60;;;;;;5061982;28;20036;-77
2023/09/09 10:15:07;;;;;;;0.00;0.00;;;25.50;96.20;;;;;;5027435;28;20104;-77
2023/09/09 10:17:35;;;;;;;0.00;0.00;;;25.70;95.70;;;;;;5041635;28;20252;-77
2023/09/09 10:20:05;;;;;;;0.80;0.25;;;25.90;95.80;;;;;;5041639;28;20032;-77
2023/09/09 10:22:33;;;;;;;1.02;0.60;;;26.20;94.40;;;;;;5041532;28;20031;-77
2023/09/09 10:24:59;;;;;;;0.20;0.20;;;26.60;92.80;;;;;;5041403;28;20012;-82
2023/09/09 10:27:27;;;;;;;0.20;0.20;;;26.80;91.70;;;;;;5059305;28;20063;-76
2023/09/09 10:29:55;;;;;;;0.00;0.00;;;26.90;87.50;;;;;;5061130;28;20017;-78
2023/09/09 10:32:23;;;;;;;0.00;0.00;;;27.10;87.90;;;;;;5059189;28;20547;-78
2023/09/09 10:34:52;;;;;;;0.10;0.10;;;27.30;85.60;;;;;;5041895;28;20056;-76
2023/09/09 10:37:19;;;;;;;0.25;0.08;;;27.50;84.60;;;;;;5041105;28;20206;-76
2023/09/09 10:39:48;;;;;;;0.00;0.00;;;27.70;84.20;;;;;;5059406;28;20109;-78
2023/09/09 10:42:16;;;;;;;0.05;0.05;;;27.90;82.10;;;;;;5041336;28;20028;-77
2023/09/09 10:44:49;;;;;;;0.20;0.20;;;27.90;79.40;;;;;;5059170;28;20104;-80
2023/09/09 10:47:16;;;;;;;0.03;0.03;;;28.00;78.70;;;;;;5058751;28;20053;-77
2023/09/09 10:49:42;;;;;;;0.20;0.20;;;28.10;78.00;;;;;;5059313;28;20021;-79
2023/09/09 10:52:34;;;;;;;0.20;0.20;;;28.30;78.70;;;;;;5059184;28;20021;-77
2023/09/09 10:55:13;;;;;;;0.10;0.10;;;28.40;78.90;;;;;;5059320;28;20043;-77
2023/09/09 10:57:38;;;;;;;0.10;0.10;;;28.50;78.00;;;;;;5050377;28;20331;-81
2023/09/09 11:00:11;;;;;;;0.25;0.25;;;28.10;77.70;;;;;;5074420;28;20383;-77
2023/09/09 11:02:47;;;;;;;0.00;0.00;;;28.80;77.50;;;;;;5040526;28;20212;-76
2023/09/09 11:05:15;;;;;;;1.95;1.85;;;28.90;75.50;;;;;;5059657;28;20029;-78
2023/09/09 11:07:44;;;;;;;1.10;0.38;;;29.00;74.90;;;;;;5041128;28;20033;-77
2023/09/09 11:10:16;;;;;;;0.35;0.35;;;29.10;76.00;;;;;;5040577;28;20021;-79
2023/09/09 11:12:58;;;;;;;1.77;1.67;;;29.00;74.50;;;;;;5058704;28;20029;-81
2023/09/09 11:15:28;;;;;;;0.00;0.00;;;29.20;75.60;;;;;;5024741;28;20532;-76
2023/09/09 11:17:54;;;;;;;0.20;0.20;;;29.30;74.00;;;;;;5058797;28;20024;-78
2023/09/09 11:20:21;;;;;;;1.83;0.80;;;29.50;74.70;;;;;;5058613;28;20563;-75
2023/09/09 11:22:47;;;;;;;0.00;0.00;;;29.70;73.50;;;;;;5040587;28;20031;-81
2023/09/09 11:25:15;;;;;;;0.00;0.00;;;29.70;74.00;;;;;;5040388;28;20028;-76
2023/09/09 11:27:41;;;;;;;3.42;1.50;;;29.40;72.60;;;;;;5059128;28;20450;-77
2023/09/09 11:30:07;;;;;;;0.40;0.20;;;29.90;73.00;;;;;;5059283;28;20375;-79
2023/09/09 11:32:33;;;;;;;0.32;0.32;;;32.20;74.20;;;;;;5058861;28;20036;-77
2023/09/09 11:34:59;;;;;;;0.00;0.00;;;30.30;73.10;;;;;;5059095;28;20306;-80
2023/09/09 11:37:26;;;;;;;0.50;0.50;;;30.50;72.10;;;;;;5059146;28;20024;-77
2023/09/09 11:39:55;;;;;;;3.65;0.75;;;30.80;70.50;;;;;;5059364;28;20594;-77
2023/09/09 11:42:21;;;;;;;1.60;1.05;;;30.90;70.10;;;;;;5058214;28;20095;-77
2023/09/09 11:44:47;;;;;;;0.40;0.40;;;30.80;69.10;;;;;;5058695;28;20024;-79
2023/09/09 11:47:15;;;;;;;2.17;0.93;;;30.90;69.80;;;;;;5059265;28;20025;-77
2023/09/09 11:49:45;;;;;;;0.75;0.65;;;31.10;68.10;;;;;;5059500;28;20317;-76
2023/09/09 11:52:12;;;;;;;0.55;0.10;;;31.00;68.70;;;;;;5060976;28;20031;-78
2023/09/09 11:54:37;;;;;;;0.55;0.40;;;31.00;68.40;;;;;;5025189;28;20245;-76
2023/09/09 11:57:07;;;;;;;4.05;1.17;;;31.10;69.30;;;;;;5054260;28;20459;-75
2023/09/09 11:59:51;;;;;;;0.10;0.10;;;31.20;68.10;;;;;;5037258;28;20033;-75
2023/09/09 12:02:21;;;;;;;0.10;0.10;;;29.60;69.10;;;;;;5040003;28;20494;-78
2023/09/09 12:04:58;;;;;;;0.20;0.20;;;31.50;68.40;;;;;;5059007;28;20102;-77
2023/09/09 12:07:29;;;;;;;0.00;0.00;;;31.70;67.90;;;;;;5064620;28;20240;-75
2023/09/09 12:09:57;;;;;;;0.00;0.00;;;31.80;68.30;;;;;;5059261;28;20028;-75
2023/09/09 12:12:23;;;;;;;0.00;0.00;;;32.10;67.40;;;;;;5059158;28;20028;-75
2023/09/09 12:14:51;;;;;;;0.28;0.10;;;32.40;67.60;;;;;;5041108;28;20506;-76
2023/09/09 12:17:17;;;;;;;0.28;0.28;;;32.50;65.90;;;;;;5040225;28;20025;-75
2023/09/09 12:19:54;;;;;;;0.38;0.10;;;32.50;66.40;;;;;;5058308;28;20049;-75
2023/09/09 12:22:32;;;;;;;0.22;0.22;;;32.80;66.40;;;;;;5059209;28;20020;-82
2023/09/09 12:24:59;;;;;;;3.83;3.03;;;32.80;64.10;;;;;;5058500;28;20662;-76
2023/09/09 12:27:44;;;;;;;0.32;0.30;;;32.80;64.10;;;;;;5059564;28;20525;-76
2023/09/09 12:30:33;;;;;;;0.22;0.22;;;33.00;64.10;;;;;;5058469;28;20123;-76
2023/09/09 12:33:13;;;;;;;0.00;0.00;;;32.70;63.90;;;;;;5039871;28;20111;-81
2023/09/09 12:35:43;;;;;;;0.30;0.20;;;32.90;63.60;;;;;;5058370;28;20510;-78
2023/09/09 12:38:10;;;;;;;3.33;2.17;;;32.90;64.10;;;;;;5057523;28;20024;-77
2023/09/09 12:40:45;;;;;;;0.10;0.10;;;34.10;64.80;;;;;;5040106;28;20423;-76
2023/09/09 12:43:12;;;;;;;0.55;0.47;;;33.50;63.70;;;;;;5057639;28;20426;-78
2023/09/09 12:45:58;;;;;;;0.10;0.10;;;33.50;62.80;;;;;;5059411;28;20077;-76
2023/09/09 12:48:24;;;;;;;7.18;5.30;;;33.60;63.10;;;;;;5040577;28;20028;-76
2023/09/09 12:50:49;;;;;;;2.72;1.55;;;32.80;62.70;;;;;;5058383;28;20074;-77